createdAt,value
2022-11-30T00:01:58.398Z,26.00
2022-11-30T00:04:24.974Z,24.83
2022-11-30T00:06:56.854Z,27.03
2022-11-30T00:09:23.882Z,25.17
2022-11-30T00:11:50.342Z,26.37
2022-11-30T00:14:16.806Z,25.23
2022-11-30T00:16:43.325Z,27.53
2022-11-30T00:19:09.846Z,24.57
2022-11-30T00:21:36.316Z,26.13
2022-11-30T00:24:02.817Z,27.03
2022-11-30T00:26:29.445Z,27.50
2022-11-30T00:28:55.908Z,27.63
2022-11-30T00:31:22.480Z,29.80
2022-11-30T00:33:49.005Z,27.93
2022-11-30T00:36:16.554Z,29.33
2022-11-30T00:38:43.259Z,28.67
2022-11-30T00:41:09.804Z,27.97
2022-11-30T00:43:36.227Z,28.27
2022-11-30T00:46:02.721Z,26.57
2022-11-30T00:48:29.198Z,26.80
2022-11-30T00:50:55.785Z,27.00
2022-11-30T00:53:22.331Z,28.37
2022-11-30T00:55:48.811Z,28.93
2022-11-30T00:58:15.432Z,29.03
2022-11-30T01:00:41.982Z,24.40
2022-11-30T01:03:08.497Z,24.53
2022-11-30T01:05:35.089Z,25.63
2022-11-30T01:08:02.075Z,26.70
2022-11-30T01:10:28.664Z,24.60
2022-11-30T01:12:55.144Z,26.30
2022-11-30T01:15:21.658Z,27.13
2022-11-30T01:17:48.168Z,27.07
2022-11-30T01:20:14.688Z,27.47
2022-11-30T01:22:41.202Z,28.30
2022-11-30T01:25:07.863Z,27.13
2022-11-30T01:27:34.538Z,28.30
2022-11-30T01:30:01.274Z,25.60
2022-11-30T01:32:27.829Z,28.40
2022-11-30T01:34:54.417Z,29.77
2022-11-30T01:37:20.895Z,29.10
2022-11-30T01:39:47.375Z,29.07
2022-11-30T01:42:17.623Z,27.30
2022-11-30T01:44:56.902Z,27.00
2022-11-30T01:47:28.233Z,27.07
2022-11-30T01:50:05.838Z,28.77
2022-11-30T01:52:39.783Z,28.97
2022-11-30T01:55:14.997Z,28.57
2022-11-30T01:57:42.685Z,29.23
2022-11-30T02:00:10.066Z,29.00
2022-11-30T02:02:51.725Z,27.83
2022-11-30T02:05:18.273Z,31.80
2022-11-30T02:07:45.028Z,30.03
2022-11-30T02:10:16.057Z,27.27
2022-11-30T02:12:42.610Z,26.33
2022-11-30T02:15:10.104Z,27.80
2022-11-30T02:17:42.463Z,26.37
2022-11-30T02:20:08.906Z,25.97
2022-11-30T02:22:35.507Z,26.30
2022-11-30T02:25:04.981Z,23.17
2022-11-30T02:27:38.882Z,24.50
2022-11-30T02:30:05.869Z,27.53
2022-11-30T02:32:33.783Z,26.80
2022-11-30T02:35:00.776Z,26.60
2022-11-30T02:37:27.324Z,29.00
2022-11-30T02:39:53.746Z,26.63
2022-11-30T02:42:20.456Z,26.10
2022-11-30T02:44:50.503Z,29.87
2022-11-30T02:47:35.882Z,28.10
2022-11-30T02:50:04.520Z,25.27
2022-11-30T02:52:31.048Z,26.03
2022-11-30T02:55:01.315Z,27.30
2022-11-30T02:57:27.888Z,27.70
2022-11-30T02:59:54.401Z,28.07
2022-11-30T03:02:20.906Z,29.37
2022-11-30T03:04:47.731Z,30.00
2022-11-30T03:07:14.428Z,29.70
2022-11-30T03:09:40.903Z,30.17
2022-11-30T03:12:07.399Z,29.67
2022-11-30T03:14:33.859Z,30.57
2022-11-30T03:17:00.287Z,27.17
2022-11-30T03:19:26.788Z,29.73
2022-11-30T03:21:53.313Z,29.33
2022-11-30T03:24:19.796Z,28.00
2022-11-30T03:26:46.276Z,31.37
2022-11-30T03:29:12.757Z,29.37
2022-11-30T03:31:39.187Z,29.37
2022-11-30T03:34:05.640Z,30.40
2022-11-30T03:36:32.132Z,29.43
2022-11-30T03:38:58.681Z,30.33
2022-11-30T03:41:25.101Z,29.50
2022-11-30T03:43:51.538Z,30.30
2022-11-30T03:46:18.000Z,28.83
2022-11-30T03:48:44.568Z,28.60
2022-11-30T03:51:11.203Z,28.37
2022-11-30T03:53:37.685Z,29.63
2022-11-30T03:56:04.983Z,29.73
2022-11-30T03:58:31.487Z,30.80
2022-11-30T04:01:01.899Z,24.00
2022-11-30T04:03:28.434Z,29.47
2022-11-30T04:05:54.875Z,29.37
2022-11-30T04:08:21.429Z,29.23
2022-11-30T04:10:48.214Z,29.47
2022-11-30T04:13:14.619Z,29.53
2022-11-30T04:15:41.280Z,29.87
2022-11-30T04:18:07.753Z,30.50
2022-11-30T04:20:40.065Z,30.30
2022-11-30T04:23:06.932Z,27.07
2022-11-30T04:25:33.517Z,29.40
2022-11-30T04:28:00.010Z,28.70
2022-11-30T04:30:26.478Z,28.40
2022-11-30T04:32:52.907Z,30.43
2022-11-30T04:35:19.355Z,28.77
2022-11-30T04:37:45.840Z,26.67
2022-11-30T04:40:12.474Z,29.27
2022-11-30T04:42:38.927Z,25.87
2022-11-30T04:45:05.543Z,27.63
2022-11-30T04:47:31.965Z,30.47
2022-11-30T04:49:58.466Z,31.17
2022-11-30T04:52:24.955Z,30.43
2022-11-30T04:54:52.019Z,29.60
2022-11-30T04:57:18.510Z,28.60
2022-11-30T04:59:44.974Z,28.97
2022-11-30T05:02:11.456Z,27.30
2022-11-30T05:04:38.009Z,30.57
2022-11-30T05:07:04.618Z,26.30
2022-11-30T05:09:31.051Z,27.17
2022-11-30T05:11:57.518Z,29.23
2022-11-30T05:14:23.966Z,29.47
2022-11-30T05:16:50.424Z,27.80
2022-11-30T05:19:16.939Z,25.80
2022-11-30T05:21:45.738Z,26.07
2022-11-30T05:24:12.573Z,28.63
2022-11-30T05:26:39.070Z,27.60
2022-11-30T05:29:05.566Z,29.23
2022-11-30T05:31:32.272Z,29.17
2022-11-30T05:33:59.342Z,27.70
2022-11-30T05:36:25.878Z,27.33
2022-11-30T05:38:52.319Z,29.97
2022-11-30T05:41:18.805Z,28.83
2022-11-30T05:43:45.238Z,29.87
2022-11-30T05:46:11.706Z,28.87
2022-11-30T05:48:38.159Z,28.37
2022-11-30T05:51:08.019Z,26.67
2022-11-30T05:53:34.579Z,24.40
2022-11-30T05:56:08.000Z,24.87
2022-11-30T05:58:34.576Z,25.30
2022-11-30T06:01:01.023Z,24.73
2022-11-30T06:03:30.601Z,26.37
2022-11-30T06:05:57.152Z,27.70
2022-11-30T06:08:23.751Z,25.50
2022-11-30T06:10:50.209Z,27.80
2022-11-30T06:13:16.717Z,26.47
2022-11-30T06:15:43.466Z,29.13
2022-11-30T06:18:11.252Z,27.50
2022-11-30T06:20:37.814Z,25.20
2022-11-30T06:23:04.337Z,23.10
2022-11-30T06:25:30.883Z,27.97
2022-11-30T06:27:57.607Z,29.47
2022-11-30T06:30:24.212Z,28.37
2022-11-30T06:32:51.368Z,28.93
2022-11-30T06:35:18.278Z,28.43
2022-11-30T06:37:44.766Z,27.97
2022-11-30T06:40:11.743Z,26.67
2022-11-30T06:42:38.288Z,25.97
2022-11-30T06:45:05.569Z,28.20
2022-11-30T06:47:32.054Z,24.83
2022-11-30T06:49:58.532Z,27.80
2022-11-30T06:52:25.023Z,26.83
2022-11-30T06:54:51.676Z,29.00
2022-11-30T06:57:18.414Z,26.73
2022-11-30T06:59:45.054Z,26.07
2022-11-30T07:02:16.172Z,27.47
2022-11-30T07:04:44.776Z,29.23
2022-11-30T07:07:11.651Z,29.00
2022-11-30T07:09:38.340Z,27.67
2022-11-30T07:12:05.007Z,30.33
2022-11-30T07:14:31.537Z,27.17
2022-11-30T07:16:58.170Z,28.43
2022-11-30T07:19:24.763Z,29.97
2022-11-30T07:21:51.351Z,28.27
2022-11-30T07:24:36.678Z,27.27
2022-11-30T07:27:03.362Z,27.40
2022-11-30T07:29:30.001Z,28.43
2022-11-30T07:31:56.621Z,30.40
2022-11-30T07:34:23.224Z,26.20
2022-11-30T07:36:49.872Z,27.67
2022-11-30T07:39:16.439Z,28.33
2022-11-30T07:41:43.054Z,28.07
2022-11-30T07:44:09.691Z,29.90
2022-11-30T07:46:36.379Z,32.20
2022-11-30T07:49:07.118Z,31.23
2022-11-30T07:51:33.882Z,32.13
2022-11-30T07:54:00.527Z,28.73
2022-11-30T07:56:27.223Z,28.63
2022-11-30T07:58:54.926Z,29.03
2022-11-30T08:01:22.441Z,32.83
2022-11-30T08:03:49.441Z,30.50
2022-11-30T08:06:23.005Z,34.10
2022-11-30T08:08:50.204Z,28.97
2022-11-30T08:11:17.371Z,29.83
2022-11-30T08:13:43.920Z,29.03
2022-11-30T08:16:11.624Z,28.00
2022-11-30T08:18:38.338Z,30.23
2022-11-30T08:21:05.591Z,29.47
2022-11-30T08:23:32.927Z,30.60
2022-11-30T08:26:10.240Z,28.23
2022-11-30T08:28:37.086Z,27.77
2022-11-30T08:31:04.814Z,30.13
2022-11-30T08:33:31.617Z,29.90
2022-11-30T08:36:07.267Z,30.50
2022-11-30T08:38:33.946Z,28.70
2022-11-30T08:41:00.765Z,29.17
2022-11-30T08:43:27.798Z,28.57
2022-11-30T08:45:57.144Z,31.37
2022-11-30T08:48:24.152Z,29.20
2022-11-30T08:50:50.709Z,30.03
2022-11-30T08:53:17.206Z,29.30
2022-11-30T08:55:43.796Z,32.73
2022-11-30T08:58:10.272Z,29.20
2022-11-30T09:00:36.739Z,30.43
2022-11-30T09:03:05.743Z,31.13
2022-11-30T09:05:32.328Z,28.73
2022-11-30T09:07:58.867Z,29.60
2022-11-30T09:10:25.468Z,24.77
2022-11-30T09:12:51.995Z,26.47
2022-11-30T09:15:18.439Z,29.10
2022-11-30T09:17:44.956Z,29.13
2022-11-30T09:20:11.714Z,27.80
2022-11-30T09:22:38.189Z,28.47
2022-11-30T09:25:05.173Z,29.30
2022-11-30T09:27:32.496Z,27.10
2022-11-30T09:29:59.015Z,29.03
2022-11-30T09:32:25.627Z,25.23
2022-11-30T09:34:52.567Z,23.93
2022-11-30T09:37:19.243Z,26.87
2022-11-30T09:39:45.721Z,23.53
2022-11-30T09:42:21.498Z,26.03
2022-11-30T09:44:51.163Z,29.20
2022-11-30T09:47:27.565Z,27.13
2022-11-30T09:49:57.214Z,25.83
2022-11-30T09:52:26.531Z,29.83
2022-11-30T09:54:53.177Z,28.20
2022-11-30T09:57:26.038Z,27.47
2022-11-30T09:59:56.861Z,27.80
2022-11-30T10:02:25.317Z,27.30
2022-11-30T10:04:51.943Z,27.40
2022-11-30T10:07:30.692Z,25.93
2022-11-30T10:10:30.795Z,28.57
2022-11-30T10:13:13.066Z,24.67
2022-11-30T10:15:58.144Z,25.73
2022-11-30T10:18:28.663Z,26.90
2022-11-30T10:20:58.373Z,25.87
2022-11-30T10:23:55.174Z,26.27
2022-11-30T10:26:27.890Z,22.97
2022-11-30T10:28:54.890Z,26.43
2022-11-30T10:31:27.447Z,23.67
2022-11-30T10:33:54.467Z,25.47
2022-11-30T10:36:20.955Z,25.43
2022-11-30T10:38:48.501Z,25.17
2022-11-30T10:41:16.598Z,25.80
2022-11-30T10:43:44.926Z,24.17
2022-11-30T10:46:26.911Z,24.33
2022-11-30T10:48:58.361Z,25.63
2022-11-30T10:51:25.102Z,23.50
2022-11-30T10:53:51.848Z,24.50
2022-11-30T10:56:18.331Z,24.70
2022-11-30T10:58:44.763Z,23.60
2022-11-30T11:01:11.969Z,25.17
2022-11-30T11:03:38.652Z,26.47
2022-11-30T11:06:13.360Z,24.20
2022-11-30T11:08:40.578Z,22.23
2022-11-30T11:11:25.679Z,24.13
2022-11-30T11:13:52.198Z,23.03
2022-11-30T11:16:18.682Z,21.93
2022-11-30T11:18:52.120Z,27.10
2022-11-30T11:21:19.103Z,21.77
2022-11-30T11:23:45.825Z,21.87
2022-11-30T11:26:25.521Z,20.43
2022-11-30T11:28:52.655Z,22.00
2022-11-30T11:31:28.482Z,20.87
2022-11-30T11:33:55.056Z,19.67
2022-11-30T11:36:25.652Z,20.53
2022-11-30T11:38:52.174Z,20.30
2022-11-30T11:41:20.485Z,21.27
2022-11-30T11:44:13.152Z,20.27
2022-11-30T11:46:58.224Z,20.50
2022-11-30T11:49:26.434Z,21.23
2022-11-30T11:52:06.072Z,20.87
2022-11-30T11:54:36.954Z,20.43
2022-11-30T11:57:03.501Z,19.80
2022-11-30T11:59:44.330Z,20.70
2022-11-30T12:02:31.075Z,20.07
2022-11-30T12:05:01.459Z,21.13
2022-11-30T12:07:46.802Z,21.53
2022-11-30T12:10:49.914Z,19.57
2022-11-30T12:13:09.338Z,18.87
2022-11-30T12:15:59.078Z,20.57
2022-11-30T12:18:28.904Z,20.87
2022-11-30T12:20:59.596Z,19.37
2022-11-30T12:23:38.367Z,20.07
2022-11-30T12:26:34.359Z,19.80
2022-11-30T12:29:19.703Z,18.37
2022-11-30T12:31:52.423Z,19.73
2022-11-30T12:34:28.069Z,18.57
2022-11-30T12:36:54.543Z,17.67
2022-11-30T12:39:25.026Z,19.80
2022-11-30T12:41:52.525Z,21.20
2022-11-30T12:44:29.005Z,20.40
2022-11-30T12:47:08.822Z,21.63
2022-11-30T12:49:41.388Z,21.43
2022-11-30T12:52:26.620Z,20.57
2022-11-30T12:54:59.178Z,22.07
2022-11-30T12:57:36.254Z,22.03
2022-11-30T13:00:11.983Z,22.93
2022-11-30T13:02:47.632Z,22.13
2022-11-30T13:05:15.648Z,21.87
2022-11-30T13:07:46.543Z,21.03
2022-11-30T13:10:24.589Z,21.10
2022-11-30T13:12:51.408Z,20.13
2022-11-30T13:15:18.555Z,22.07
2022-11-30T13:17:45.071Z,22.90
2022-11-30T13:20:34.910Z,21.20
2022-11-30T13:23:03.303Z,20.90
2022-11-30T13:28:38.062Z,21.20
2022-11-30T13:31:06.470Z,21.60
2022-11-30T13:33:51.914Z,20.33
2022-11-30T13:36:22.292Z,21.83
2022-11-30T13:39:07.875Z,21.00
2022-11-30T13:41:35.073Z,21.27
2022-11-30T13:44:01.829Z,20.83
2022-11-30T13:46:28.758Z,19.30
2022-11-30T13:49:14.091Z,17.20
2022-11-30T13:51:42.095Z,18.77
2022-11-30T13:54:28.385Z,19.03
2022-11-30T13:56:54.990Z,18.10
2022-11-30T13:59:23.588Z,17.30
2022-11-30T14:01:53.337Z,17.83
2022-11-30T14:04:19.791Z,17.60
2022-11-30T14:06:49.898Z,16.20
2022-11-30T14:09:36.724Z,16.70
2022-11-30T14:12:22.022Z,16.57
2022-11-30T14:14:48.589Z,17.53
2022-11-30T14:17:16.956Z,17.57
2022-11-30T14:19:44.254Z,19.17
2022-11-30T14:22:11.111Z,16.53
2022-11-30T14:24:37.624Z,19.47
2022-11-30T14:27:04.326Z,19.10
2022-11-30T14:29:35.494Z,20.87
2022-11-30T14:32:08.029Z,20.33
2022-11-30T14:34:39.307Z,19.97
2022-11-30T14:37:26.136Z,18.90
2022-11-30T14:39:58.707Z,17.70
2022-11-30T14:42:26.282Z,19.90
2022-11-30T14:44:53.405Z,20.57
2022-11-30T14:47:32.662Z,19.97
2022-11-30T14:50:02.189Z,20.00
2022-11-30T14:52:38.149Z,21.63
2022-11-30T14:55:31.159Z,21.27
2022-11-30T14:58:07.626Z,19.40
2022-11-30T15:00:41.023Z,21.53
2022-11-30T15:03:16.353Z,20.37
2022-11-30T15:05:43.208Z,21.80
2022-11-30T15:08:11.330Z,20.70
2022-11-30T15:10:37.891Z,19.47
2022-11-30T15:13:04.687Z,20.40
2022-11-30T15:15:31.533Z,21.30
2022-11-30T15:17:58.975Z,21.40
2022-11-30T15:20:36.676Z,20.93
2022-11-30T15:23:03.213Z,22.17
2022-11-30T15:25:48.956Z,23.37
2022-11-30T15:28:17.608Z,25.03
2022-11-30T15:30:44.331Z,22.40
2022-11-30T15:33:16.089Z,22.57
2022-11-30T15:36:13.778Z,21.17
2022-11-30T15:38:31.472Z,21.43
2022-11-30T15:41:05.307Z,21.50
2022-11-30T15:43:36.541Z,23.40
2022-11-30T15:46:03.197Z,23.17
2022-11-30T15:48:29.721Z,20.67
2022-11-30T15:50:56.218Z,21.80
2022-11-30T15:53:23.879Z,22.67
2022-11-30T15:55:51.121Z,20.67
2022-11-30T15:58:24.430Z,20.27
2022-11-30T16:01:25.879Z,21.23
2022-11-30T16:03:55.630Z,20.17
2022-11-30T16:06:22.629Z,21.10
2022-11-30T16:08:49.207Z,21.43
2022-11-30T16:11:16.020Z,20.07
2022-11-30T16:13:42.510Z,21.67
2022-11-30T16:16:12.516Z,22.10
2022-11-30T16:18:39.026Z,22.03
2022-11-30T16:21:05.762Z,21.57
2022-11-30T16:23:35.311Z,22.33
2022-11-30T16:26:01.786Z,22.47
2022-11-30T16:28:28.314Z,23.77
2022-11-30T16:30:54.894Z,23.23
2022-11-30T16:33:25.704Z,25.17
2022-11-30T16:35:58.670Z,25.03
2022-11-30T16:38:25.111Z,24.97
2022-11-30T16:40:54.126Z,25.57
2022-11-30T16:43:20.676Z,24.63
2022-11-30T16:45:48.143Z,21.93
2022-11-30T16:48:14.598Z,23.23
2022-11-30T16:50:41.524Z,24.00
2022-11-30T16:53:10.019Z,23.23
2022-11-30T16:55:37.973Z,24.73
2022-11-30T16:58:04.669Z,23.67
2022-11-30T17:00:31.416Z,27.23
2022-11-30T17:03:08.549Z,22.50
2022-11-30T17:05:35.536Z,23.60
2022-11-30T17:08:02.155Z,24.93
2022-11-30T17:10:28.750Z,25.57
2022-11-30T17:12:55.197Z,25.63
2022-11-30T17:15:22.396Z,25.13
2022-11-30T17:17:48.974Z,24.93
2022-11-30T17:20:15.733Z,23.53
2022-11-30T17:22:42.246Z,26.20
2022-11-30T17:25:09.721Z,24.07
2022-11-30T17:27:36.145Z,24.10
2022-11-30T17:30:02.838Z,24.30
2022-11-30T17:32:29.306Z,23.50
2022-11-30T17:34:55.829Z,23.43
2022-11-30T17:37:23.211Z,26.03
2022-11-30T17:39:49.952Z,23.70
2022-11-30T17:42:16.428Z,25.20
2022-11-30T17:44:42.972Z,24.20
2022-11-30T17:47:09.519Z,23.73
2022-11-30T17:49:36.086Z,25.63
2022-11-30T17:52:02.562Z,25.20
2022-11-30T17:54:29.030Z,25.93
2022-11-30T17:56:56.658Z,24.43
2022-11-30T17:59:23.076Z,26.23
2022-11-30T18:01:49.814Z,26.97
2022-11-30T18:04:16.454Z,24.23
2022-11-30T18:06:42.903Z,23.83
2022-11-30T18:09:09.367Z,22.60
2022-11-30T18:11:35.965Z,23.63
2022-11-30T18:14:03.984Z,24.07
2022-11-30T18:16:31.404Z,25.10
2022-11-30T18:18:58.690Z,23.50
2022-11-30T18:21:25.956Z,22.87
2022-11-30T18:23:53.238Z,22.57
2022-11-30T18:26:20.717Z,24.50
2022-11-30T18:28:47.352Z,24.37
2022-11-30T18:31:13.947Z,24.90
2022-11-30T18:33:40.569Z,22.27
2022-11-30T18:36:07.870Z,23.60
2022-11-30T18:38:38.125Z,23.07
2022-11-30T18:41:05.440Z,23.97
2022-11-30T18:43:33.572Z,22.50
2022-11-30T18:46:04.186Z,22.00
2022-11-30T18:48:30.988Z,22.30
2022-11-30T18:50:57.492Z,21.57
2022-11-30T18:53:24.781Z,22.63
2022-11-30T18:55:51.558Z,21.97
2022-11-30T18:58:18.178Z,20.37
2022-11-30T19:00:47.852Z,22.03
2022-11-30T19:03:14.469Z,21.13
2022-11-30T19:05:44.221Z,21.93
2022-11-30T19:08:13.792Z,20.97
2022-11-30T19:10:40.749Z,22.80
2022-11-30T19:13:08.548Z,23.30
2022-11-30T19:15:39.061Z,23.30
2022-11-30T19:18:05.886Z,23.83
2022-11-30T19:20:37.146Z,23.23
2022-11-30T19:23:03.667Z,21.87
2022-11-30T19:25:30.250Z,22.27
2022-11-30T19:27:56.851Z,23.13
2022-11-30T19:30:23.504Z,22.37
2022-11-30T19:32:50.161Z,23.80
2022-11-30T19:35:16.826Z,24.50
2022-11-30T19:37:43.325Z,22.27
2022-11-30T19:40:10.274Z,20.53
2022-11-30T19:42:37.041Z,22.00
2022-11-30T19:45:03.704Z,20.57
2022-11-30T19:47:30.640Z,20.67
2022-11-30T19:50:01.381Z,19.33
2022-11-30T19:52:27.906Z,19.77
2022-11-30T19:54:54.500Z,18.50
2022-11-30T19:57:21.108Z,19.47
2022-11-30T19:59:47.644Z,19.80
2022-11-30T20:02:14.301Z,19.13
2022-11-30T20:04:40.831Z,19.57
2022-11-30T20:07:07.492Z,19.87
2022-11-30T20:09:33.991Z,18.47
2022-11-30T20:12:00.461Z,19.00
2022-11-30T20:14:27.390Z,20.33
2022-11-30T20:16:54.130Z,20.30
2022-11-30T20:19:20.684Z,20.17
2022-11-30T20:21:48.449Z,20.33
2022-11-30T20:24:15.717Z,19.90
2022-11-30T20:26:42.854Z,19.87
2022-11-30T20:29:13.813Z,21.23
2022-11-30T20:31:40.581Z,22.53
2022-11-30T20:34:08.359Z,18.33
2022-11-30T20:36:35.072Z,18.73
2022-11-30T20:39:02.976Z,18.57
2022-11-30T20:41:29.499Z,19.17
2022-11-30T20:43:56.045Z,20.00
2022-11-30T20:46:23.560Z,20.37
2022-11-30T20:48:50.576Z,19.33
2022-11-30T20:51:33.869Z,21.17
2022-11-30T20:54:01.374Z,19.73
2022-11-30T20:56:27.973Z,19.33
2022-11-30T20:58:54.650Z,19.33
2022-11-30T21:01:21.544Z,19.63
2022-11-30T21:03:48.548Z,20.53
2022-11-30T21:06:16.317Z,18.90
2022-11-30T21:08:43.041Z,19.73
2022-11-30T21:11:11.412Z,20.33
2022-11-30T21:13:38.129Z,19.90
2022-11-30T21:16:07.288Z,20.17
2022-11-30T21:18:34.709Z,17.93
2022-11-30T21:21:02.178Z,19.60
2022-11-30T21:23:28.754Z,19.70
2022-11-30T21:25:55.483Z,20.27
2022-11-30T21:28:22.254Z,18.23
2022-11-30T21:30:48.849Z,19.27
2022-11-30T21:33:15.357Z,22.67
2022-11-30T21:35:41.803Z,20.83
2022-11-30T21:38:08.256Z,17.40
2022-11-30T21:40:34.734Z,17.00
2022-11-30T21:43:01.272Z,18.80
2022-11-30T21:45:27.827Z,19.10
2022-11-30T21:47:54.349Z,21.37
2022-11-30T21:50:25.784Z,19.67
2022-11-30T21:52:53.676Z,19.67
2022-11-30T21:55:20.505Z,19.67
2022-11-30T21:57:46.958Z,18.97
2022-11-30T22:00:14.525Z,19.13
2022-11-30T22:02:41.143Z,19.40
2022-11-30T22:05:07.873Z,19.90
2022-11-30T22:07:34.449Z,18.60
2022-11-30T22:10:00.907Z,18.90
2022-11-30T22:12:27.367Z,20.17
2022-11-30T22:14:53.903Z,22.13
2022-11-30T22:17:20.518Z,21.37
2022-11-30T22:19:47.392Z,22.80
2022-11-30T22:22:14.208Z,22.33
2022-11-30T22:24:40.673Z,22.70
2022-11-30T22:27:07.244Z,23.30
2022-11-30T22:29:33.768Z,23.23
2022-11-30T22:32:00.297Z,23.50
2022-11-30T22:34:26.849Z,21.80
2022-11-30T22:36:53.309Z,18.10
2022-11-30T22:39:20.201Z,19.80
2022-11-30T22:41:49.927Z,19.07
2022-11-30T22:44:20.960Z,17.70
2022-11-30T22:46:47.635Z,15.37
2022-11-30T22:49:19.966Z,18.47
2022-11-30T22:51:47.569Z,16.30
2022-11-30T22:54:14.059Z,16.63
2022-11-30T22:56:41.546Z,16.87
2022-11-30T22:59:10.229Z,16.23
2022-11-30T23:01:37.789Z,16.13
2022-11-30T23:04:09.254Z,15.80
2022-11-30T23:06:36.115Z,16.53
2022-11-30T23:09:03.154Z,14.43
2022-11-30T23:11:29.700Z,14.53
2022-11-30T23:13:56.217Z,14.43
2022-11-30T23:16:22.785Z,14.87
2022-11-30T23:18:50.636Z,14.40
2022-11-30T23:21:18.350Z,14.57
2022-11-30T23:23:44.831Z,15.37
2022-11-30T23:26:12.193Z,13.83
2022-11-30T23:28:41.222Z,13.37
2022-11-30T23:31:08.745Z,14.93
2022-11-30T23:33:35.345Z,14.90
2022-11-30T23:36:01.771Z,15.00
2022-11-30T23:38:28.328Z,14.50
2022-11-30T23:40:54.875Z,14.97
2022-11-30T23:43:21.390Z,14.73
2022-11-30T23:45:47.869Z,13.57
2022-11-30T23:48:14.340Z,14.40
2022-11-30T23:50:40.927Z,14.10
2022-11-30T23:53:07.440Z,14.93
2022-11-30T23:55:34.672Z,13.47
2022-11-30T23:58:01.132Z,15.33
